Time;durP1;ratioP1;P1;durP2;ratioP2;P2;SDS_P1;SDS_P2;PMS_P1;PMS_P2;Temp;Humidity;BMP_temperature;BMP_pressure;BME280_temperature;BME280_humidity;BME280_pressure;Samples;Min_cycle;Max_cycle;Signal;HPM_P1;HPM_P2
2021/10/19 00:02:25;;;;;;;7.18;6.25;;;9.00;99.90;;;;;;5087122;28;20512;-56
2021/10/19 00:04:50;;;;;;;7.70;6.57;;;9.00;99.90;;;;;;5079345;28;20029;-51
2021/10/19 00:07:16;;;;;;;6.57;5.88;;;9.00;99.90;;;;;;5068542;28;20078;-53
2021/10/19 00:09:42;;;;;;;6.53;5.55;;;9.00;99.90;;;;;;5074020;28;20077;-55
2021/10/19 00:12:08;;;;;;;6.75;5.40;;;9.00;99.90;;;;;;5085584;28;20437;-54
2021/10/19 00:14:33;;;;;;;7.68;6.32;;;9.00;99.90;;;;;;5068812;28;20519;-54
2021/10/19 00:16:59;;;;;;;7.10;5.93;;;9.00;99.90;;;;;;5077627;28;20178;-53
2021/10/19 00:19:24;;;;;;;10.48;6.28;;;8.90;99.90;;;;;;5068314;28;20033;-55
2021/10/19 00:21:50;;;;;;;7.00;5.78;;;9.00;99.90;;;;;;5070516;28;20020;-55
2021/10/19 00:24:15;;;;;;;11.35;6.18;;;9.00;99.90;;;;;;5093765;22;20044;-52
2021/10/19 00:26:41;;;;;;;8.30;5.90;;;8.90;99.90;;;;;;5070671;28;20025;-50
2021/10/19 00:29:07;;;;;;;7.78;5.70;;;8.90;99.90;;;;;;5062277;28;20068;-51
2021/10/19 00:31:32;;;;;;;8.63;5.85;;;8.90;99.90;;;;;;5059326;28;20048;-51
2021/10/19 00:33:58;;;;;;;6.85;6.18;;;8.90;99.90;;;;;;5052545;28;20043;-52
2021/10/19 00:36:23;;;;;;;8.32;6.90;;;8.90;99.90;;;;;;5051210;28;20027;-49
2021/10/19 00:38:52;;;;;;;8.07;6.32;;;8.90;99.90;;;;;;5069463;28;20464;-50
2021/10/19 00:41:17;;;;;;;8.60;7.07;;;8.90;99.90;;;;;;5070845;28;20021;-50
2021/10/19 00:43:43;;;;;;;8.27;6.50;;;8.90;99.90;;;;;;5070586;28;20036;-54
2021/10/19 00:46:15;;;;;;;10.15;6.75;;;9.00;99.90;;;;;;5070128;28;20709;-52
2021/10/19 00:48:42;;;;;;;8.85;7.20;;;8.90;99.90;;;;;;5070410;28;20037;-52
2021/10/19 00:51:10;;;;;;;8.27;6.40;;;9.00;99.90;;;;;;5070403;28;20495;-50
2021/10/19 00:53:35;;;;;;;7.88;6.03;;;9.00;99.90;;;;;;5070558;28;20029;-51
2021/10/19 00:56:01;;;;;;;8.50;6.65;;;9.00;99.90;;;;;;5070572;28;20024;-52
2021/10/19 00:58:27;;;;;;;10.05;6.60;;;9.00;99.90;;;;;;5068637;28;20047;-51
2021/10/19 01:00:52;;;;;;;7.47;6.60;;;9.00;99.90;;;;;;5066428;28;20032;-53
2021/10/19 01:03:18;;;;;;;9.50;6.28;;;9.00;99.90;;;;;;5067251;28;20033;-49
2021/10/19 01:05:44;;;;;;;7.65;6.53;;;9.00;99.90;;;;;;5069560;28;20032;-49
2021/10/19 01:08:10;;;;;;;7.88;6.38;;;9.00;99.90;;;;;;5070140;28;20032;-52
2021/10/19 01:10:37;;;;;;;7.95;6.25;;;9.00;99.90;;;;;;5068349;28;20043;-48
2021/10/19 01:13:03;;;;;;;8.05;6.90;;;9.00;99.90;;;;;;5067718;28;20044;-51
2021/10/19 01:15:32;;;;;;;8.50;6.70;;;9.00;99.90;;;;;;5070223;28;20227;-49
2021/10/19 01:17:59;;;;;;;8.90;6.72;;;9.00;99.90;;;;;;5069762;28;20029;-52
2021/10/19 01:20:30;;;;;;;6.68;6.00;;;9.00;99.90;;;;;;5069838;28;20090;-49
2021/10/19 01:22:57;;;;;;;8.05;6.32;;;9.00;99.90;;;;;;5068340;28;20028;-51
2021/10/19 01:25:26;;;;;;;9.48;7.00;;;9.00;99.90;;;;;;5047131;28;20033;-51
2021/10/19 01:27:54;;;;;;;7.85;6.18;;;9.00;99.90;;;;;;5069905;28;20044;-50
2021/10/19 01:30:20;;;;;;;9.43;7.25;;;9.00;99.90;;;;;;5069253;28;20033;-51
2021/10/19 01:32:46;;;;;;;8.80;6.93;;;9.00;99.90;;;;;;5069606;28;20024;-52
2021/10/19 01:35:13;;;;;;;9.27;6.75;;;9.00;99.90;;;;;;5068213;28;20484;-52
2021/10/19 01:37:39;;;;;;;9.40;6.50;;;9.00;99.90;;;;;;5060427;28;20035;-49
2021/10/19 01:40:10;;;;;;;7.80;6.40;;;9.00;99.90;;;;;;5069139;28;20028;-50
2021/10/19 01:42:37;;;;;;;8.75;6.95;;;9.00;99.90;;;;;;5069086;28;20033;-54
2021/10/19 01:45:03;;;;;;;8.73;7.28;;;9.00;99.90;;;;;;5069733;28;20710;-50
2021/10/19 01:47:29;;;;;;;12.75;7.85;;;9.10;99.90;;;;;;5068499;28;20259;-49
2021/10/19 01:49:54;;;;;;;9.45;7.53;;;9.00;99.90;;;;;;5060488;28;20492;-53
2021/10/19 01:52:20;;;;;;;12.02;6.60;;;9.10;99.90;;;;;;5069424;28;20028;-49
2021/10/19 01:54:46;;;;;;;10.23;7.25;;;9.10;99.90;;;;;;5069244;28;20461;-48
2021/10/19 01:57:11;;;;;;;11.75;8.07;;;9.10;99.90;;;;;;5069541;28;20024;-53
2021/10/19 01:59:37;;;;;;;8.80;7.50;;;9.10;99.90;;;;;;5068959;28;20036;-52
2021/10/19 02:02:02;;;;;;;10.98;7.90;;;9.10;99.90;;;;;;5045456;28;20043;-52
2021/10/19 02:04:28;;;;;;;13.15;9.38;;;9.10;99.90;;;;;;5049590;28;20032;-57
2021/10/19 02:06:53;;;;;;;11.05;7.75;;;9.10;99.90;;;;;;5067601;28;20103;-49
2021/10/19 02:09:19;;;;;;;10.13;8.00;;;9.20;99.90;;;;;;5068507;28;20115;-53
2021/10/19 02:11:44;;;;;;;11.85;8.35;;;9.20;99.90;;;;;;5069291;28;20043;-52
2021/10/19 02:14:10;;;;;;;12.52;8.82;;;9.20;99.90;;;;;;5054330;28;20040;-49
2021/10/19 02:16:35;;;;;;;13.73;9.13;;;9.20;99.90;;;;;;5068984;28;20032;-52
2021/10/19 02:19:01;;;;;;;10.38;7.80;;;9.20;99.90;;;;;;5069114;28;20033;-52
2021/10/19 02:21:26;;;;;;;10.32;9.23;;;9.20;99.90;;;;;;5069249;28;20040;-51
2021/10/19 02:23:52;;;;;;;11.20;8.55;;;9.30;99.90;;;;;;5068358;28;20032;-51
2021/10/19 02:26:17;;;;;;;13.80;9.65;;;9.30;99.90;;;;;;5034003;28;20100;-57
2021/10/19 02:28:43;;;;;;;13.88;8.73;;;9.30;99.90;;;;;;5064915;28;20089;-50
2021/10/19 02:31:10;;;;;;;12.95;8.90;;;9.30;99.90;;;;;;5068481;28;20041;-55
2021/10/19 02:33:36;;;;;;;13.65;9.60;;;9.30;99.90;;;;;;5068369;28;20037;-52
2021/10/19 02:36:02;;;;;;;13.38;9.13;;;9.30;99.90;;;;;;5068567;28;20111;-52
2021/10/19 02:38:28;;;;;;;12.90;9.90;;;9.40;99.90;;;;;;5061527;28;20081;-54
2021/10/19 02:40:53;;;;;;;10.63;8.60;;;9.40;99.90;;;;;;5068290;28;20021;-51
2021/10/19 02:43:19;;;;;;;10.82;8.48;;;9.40;99.90;;;;;;5068276;28;20039;-49
2021/10/19 02:45:44;;;;;;;11.60;8.52;;;9.40;99.90;;;;;;5068458;28;20033;-48
2021/10/19 02:48:10;;;;;;;12.35;9.68;;;9.40;99.90;;;;;;5067950;28;20099;-50
2021/10/19 02:50:36;;;;;;;13.77;9.25;;;9.40;99.90;;;;;;5053162;28;20122;-50
2021/10/19 02:53:02;;;;;;;13.13;9.88;;;9.40;99.90;;;;;;5067237;28;20086;-49
2021/10/19 02:55:27;;;;;;;13.65;9.60;;;9.50;99.90;;;;;;5068398;28;20033;-49
2021/10/19 02:57:53;;;;;;;12.40;9.02;;;9.40;99.90;;;;;;5066713;28;20499;-50
2021/10/19 03:00:18;;;;;;;10.93;8.80;;;9.40;99.90;;;;;;5047997;28;20063;-50
2021/10/19 03:02:44;;;;;;;13.38;9.02;;;9.40;99.90;;;;;;5047612;28;20108;-50
2021/10/19 03:05:10;;;;;;;13.13;9.13;;;9.40;99.90;;;;;;5046845;28;20108;-48
2021/10/19 03:07:35;;;;;;;11.27;8.63;;;9.40;99.90;;;;;;5053892;28;20055;-53
2021/10/19 03:10:01;;;;;;;12.35;8.95;;;9.40;99.90;;;;;;5067922;28;20032;-51
2021/10/19 03:12:27;;;;;;;13.15;8.75;;;9.40;99.90;;;;;;5067887;28;20032;-50
2021/10/19 03:14:52;;;;;;;11.25;8.73;;;9.40;99.90;;;;;;5065367;28;20450;-52
2021/10/19 03:17:18;;;;;;;12.18;9.10;;;9.50;99.90;;;;;;5067110;28;20033;-54
2021/10/19 03:19:44;;;;;;;11.45;7.93;;;9.50;99.90;;;;;;5067313;28;20061;-48
2021/10/19 03:22:09;;;;;;;10.45;7.90;;;9.50;99.90;;;;;;5067647;28;20025;-50
2021/10/19 03:24:35;;;;;;;15.20;9.35;;;9.50;99.90;;;;;;5068059;28;20538;-47
2021/10/19 03:27:00;;;;;;;10.27;8.43;;;9.50;99.90;;;;;;5058187;28;20033;-49
2021/10/19 03:29:26;;;;;;;12.40;9.15;;;9.50;99.90;;;;;;5067676;28;20032;-48
2021/10/19 03:31:52;;;;;;;11.77;8.98;;;9.50;99.90;;;;;;5067973;28;20484;-51
2021/10/19 03:34:17;;;;;;;12.20;9.52;;;9.50;99.90;;;;;;5066931;28;20664;-55
2021/10/19 03:36:43;;;;;;;13.13;9.13;;;9.50;99.90;;;;;;5067760;28;20029;-52
2021/10/19 03:39:08;;;;;;;11.38;8.82;;;9.50;99.90;;;;;;5059611;28;20033;-49
2021/10/19 03:41:34;;;;;;;12.95;9.18;;;9.50;99.90;;;;;;5067954;28;20040;-50
2021/10/19 03:43:59;;;;;;;14.95;9.82;;;9.40;99.90;;;;;;5067283;28;20025;-52
2021/10/19 03:46:25;;;;;;;10.70;9.07;;;9.50;99.90;;;;;;5068001;28;20021;-51
2021/10/19 03:48:51;;;;;;;13.13;9.38;;;9.50;99.90;;;;;;5066857;28;20024;-52
2021/10/19 03:51:16;;;;;;;13.93;9.70;;;9.50;99.90;;;;;;5058467;28;20102;-53
2021/10/19 03:53:42;;;;;;;16.80;9.88;;;9.50;99.90;;;;;;5062850;28;20027;-53
2021/10/19 03:56:07;;;;;;;13.38;10.13;;;9.50;99.90;;;;;;5071771;28;20175;-53
2021/10/19 03:58:33;;;;;;;13.20;9.13;;;9.50;99.90;;;;;;5071633;28;20419;-49
2021/10/19 04:00:59;;;;;;;15.45;10.02;;;9.40;99.90;;;;;;5067968;28;20116;-50
2021/10/19 04:03:25;;;;;;;14.52;10.00;;;9.50;99.90;;;;;;5063444;28;20036;-51
2021/10/19 04:05:52;;;;;;;16.50;10.40;;;9.50;99.90;;;;;;5069331;28;20028;-53
2021/10/19 04:08:17;;;;;;;13.60;9.73;;;9.40;99.90;;;;;;5057980;28;20384;-55
2021/10/19 04:10:43;;;;;;;15.52;9.32;;;9.50;99.90;;;;;;5059801;28;20025;-51
2021/10/19 04:13:09;;;;;;;12.00;9.48;;;9.40;99.90;;;;;;5071166;28;20540;-55
2021/10/19 04:15:34;;;;;;;15.45;9.32;;;9.50;99.90;;;;;;5065118;28;20033;-52
2021/10/19 04:18:00;;;;;;;12.98;9.63;;;9.40;99.90;;;;;;5057901;28;20103;-51
2021/10/19 04:20:25;;;;;;;14.35;10.80;;;9.40;99.90;;;;;;5071218;28;20614;-49
2021/10/19 04:22:51;;;;;;;12.57;9.32;;;9.40;99.90;;;;;;5070923;28;20595;-52
2021/10/19 04:25:17;;;;;;;16.17;10.75;;;9.40;99.90;;;;;;5070252;28;20675;-48
2021/10/19 04:27:42;;;;;;;14.48;10.10;;;9.40;99.90;;;;;;5065846;28;20444;-51
2021/10/19 04:30:08;;;;;;;14.45;9.90;;;9.40;99.90;;;;;;5065065;28;20038;-51
2021/10/19 04:32:34;;;;;;;13.30;9.85;;;9.40;99.90;;;;;;5070963;28;20151;-47
2021/10/19 04:34:59;;;;;;;13.63;10.27;;;9.50;99.90;;;;;;5070461;28;20119;-52
2021/10/19 04:37:25;;;;;;;13.90;9.30;;;9.40;99.90;;;;;;5070997;28;20025;-52
2021/10/19 04:39:51;;;;;;;13.88;9.50;;;9.40;99.90;;;;;;5062292;28;20024;-48
2021/10/19 04:42:16;;;;;;;13.57;9.15;;;9.40;99.90;;;;;;5070913;28;20016;-53
2021/10/19 04:44:42;;;;;;;13.85;9.85;;;9.40;99.90;;;;;;5070493;28;20024;-51
2021/10/19 04:47:07;;;;;;;12.63;9.73;;;9.40;99.90;;;;;;5070742;28;20037;-51
2021/10/19 04:49:35;;;;;;;16.42;11.50;;;9.50;99.90;;;;;;5070220;28;20067;-48
2021/10/19 04:52:01;;;;;;;15.13;10.98;;;9.50;99.90;;;;;;5049824;28;20147;-50
2021/10/19 04:54:26;;;;;;;14.23;10.70;;;9.50;99.90;;;;;;5070851;28;20542;-51
2021/10/19 04:56:52;;;;;;;15.18;11.05;;;9.50;99.90;;;;;;5070534;28;20048;-53
2021/10/19 04:59:17;;;;;;;15.95;10.73;;;9.50;99.90;;;;;;5053041;28;20404;-53
2021/10/19 05:01:43;;;;;;;14.27;11.43;;;9.50;99.90;;;;;;5067505;28;20400;-53
2021/10/19 05:04:14;;;;;;;14.23;10.75;;;9.50;99.90;;;;;;5068127;28;20693;-51
2021/10/19 05:06:39;;;;;;;16.10;10.73;;;9.50;99.90;;;;;;5069277;28;20024;-52
2021/10/19 05:09:05;;;;;;;15.23;11.45;;;9.50;99.90;;;;;;5069846;28;20405;-50
2021/10/19 05:11:30;;;;;;;16.83;12.18;;;9.50;99.90;;;;;;5070180;28;20113;-56
2021/10/19 05:13:56;;;;;;;14.95;11.73;;;9.60;99.90;;;;;;5069439;28;20151;-52
2021/10/19 05:16:21;;;;;;;14.55;10.98;;;9.60;99.90;;;;;;5050729;28;20067;-52
2021/10/19 05:18:47;;;;;;;17.17;12.02;;;9.60;99.90;;;;;;5063566;28;20423;-52
2021/10/19 05:21:12;;;;;;;16.25;11.43;;;9.60;99.90;;;;;;5069658;28;20041;-49
2021/10/19 05:23:38;;;;;;;18.55;12.13;;;9.60;99.90;;;;;;5069508;28;20301;-52
2021/10/19 05:26:04;;;;;;;17.98;12.43;;;9.60;99.90;;;;;;5051851;28;20078;-52
2021/10/19 05:28:29;;;;;;;19.60;12.25;;;9.70;99.90;;;;;;5069828;28;20064;-52
2021/10/19 05:30:56;;;;;;;17.60;12.93;;;9.70;99.90;;;;;;5060419;28;20023;-56
2021/10/19 05:33:21;;;;;;;20.10;13.20;;;9.70;99.90;;;;;;5069286;28;20028;-53
2021/10/19 05:35:47;;;;;;;18.73;14.35;;;9.70;99.90;;;;;;5052108;28;20031;-56
2021/10/19 05:38:12;;;;;;;18.33;12.52;;;9.80;99.90;;;;;;5070654;28;20025;-55
2021/10/19 05:40:38;;;;;;;20.65;13.38;;;9.80;99.90;;;;;;5070401;28;20050;-52
2021/10/19 05:43:04;;;;;;;16.67;12.15;;;9.80;99.90;;;;;;5058615;28;20587;-54
2021/10/19 05:45:29;;;;;;;14.55;12.07;;;9.80;99.90;;;;;;5069560;28;20082;-50
2021/10/19 05:47:55;;;;;;;16.13;12.07;;;9.80;99.90;;;;;;5069171;28;20331;-48
2021/10/19 05:50:20;;;;;;;19.63;13.88;;;9.80;99.90;;;;;;5069208;28;20033;-50
2021/10/19 05:52:46;;;;;;;20.67;12.40;;;9.80;99.90;;;;;;5035108;28;20020;-54
2021/10/19 05:55:12;;;;;;;17.30;11.85;;;9.80;99.90;;;;;;5064153;28;20110;-51
2021/10/19 05:57:38;;;;;;;16.73;11.90;;;9.90;99.90;;;;;;5051329;28;20488;-53
2021/10/19 06:00:06;;;;;;;15.98;12.23;;;9.90;99.90;;;;;;5068871;28;20475;-49
2021/10/19 06:02:31;;;;;;;17.75;12.18;;;9.90;99.90;;;;;;5068622;28;20028;-49
2021/10/19 06:04:57;;;;;;;17.75;12.57;;;9.90;99.90;;;;;;5068877;28;20050;-49
2021/10/19 06:07:22;;;;;;;18.38;12.50;;;9.90;99.90;;;;;;5064441;28;20249;-49
2021/10/19 06:09:48;;;;;;;15.98;12.30;;;9.90;99.90;;;;;;5068849;28;20028;-53
2021/10/19 06:12:14;;;;;;;18.33;13.23;;;9.90;99.90;;;;;;5069120;28;20034;-48
2021/10/19 06:14:39;;;;;;;17.05;12.18;;;10.00;99.90;;;;;;5050580;28;20033;-50
2021/10/19 06:17:05;;;;;;;17.90;13.02;;;10.00;99.90;;;;;;5027609;28;20504;-53
2021/10/19 06:19:30;;;;;;;16.40;11.93;;;10.00;99.90;;;;;;5034305;28;20029;-48
2021/10/19 06:21:56;;;;;;;20.65;13.32;;;10.00;99.90;;;;;;5039382;28;20025;-52
2021/10/19 06:24:21;;;;;;;17.13;12.93;;;10.00;99.90;;;;;;5062751;22;20119;-52
2021/10/19 06:26:47;;;;;;;20.02;13.30;;;10.10;99.90;;;;;;5067865;28;20431;-52
2021/10/19 06:29:14;;;;;;;18.23;12.88;;;10.10;99.90;;;;;;5067935;28;20082;-55
2021/10/19 06:31:41;;;;;;;18.70;12.77;;;10.10;99.90;;;;;;5067653;28;20605;-56
2021/10/19 06:34:07;;;;;;;19.67;12.98;;;10.10;99.90;;;;;;5067534;28;20056;-55
2021/10/19 06:36:33;;;;;;;15.60;12.20;;;10.10;99.90;;;;;;5068535;28;20043;-53
2021/10/19 06:38:59;;;;;;;19.08;13.15;;;10.10;99.90;;;;;;5049479;28;20028;-54
2021/10/19 06:41:25;;;;;;;19.52;12.93;;;10.20;99.90;;;;;;5067502;28;20021;-54
2021/10/19 06:43:50;;;;;;;15.73;12.30;;;10.20;99.90;;;;;;5067585;28;20021;-56
2021/10/19 06:46:16;;;;;;;21.10;14.05;;;10.20;99.90;;;;;;5068295;28;20090;-53
2021/10/19 06:48:42;;;;;;;18.42;13.55;;;10.20;99.90;;;;;;5068086;28;20029;-54
2021/10/19 06:51:08;;;;;;;19.45;13.95;;;10.20;99.90;;;;;;5049767;28;20086;-56
2021/10/19 06:53:34;;;;;;;17.52;13.05;;;10.30;99.90;;;;;;5067101;28;20453;-51
2021/10/19 06:56:00;;;;;;;20.48;13.35;;;10.30;99.90;;;;;;5067401;28;20044;-54
2021/10/19 06:58:26;;;;;;;19.98;14.10;;;10.30;99.90;;;;;;5067627;28;20029;-53
2021/10/19 07:00:56;;;;;;;18.35;13.55;;;10.40;99.90;;;;;;5048912;28;20028;-52
2021/10/19 07:03:23;;;;;;;22.23;14.02;;;10.40;99.90;;;;;;5066539;28;20036;-55
2021/10/19 07:05:50;;;;;;;20.15;13.57;;;10.40;99.90;;;;;;5067510;28;20664;-52
2021/10/19 07:08:15;;;;;;;19.13;13.85;;;10.50;99.90;;;;;;5067368;28;20044;-53
2021/10/19 07:10:41;;;;;;;21.55;14.10;;;10.50;99.90;;;;;;5049655;28;20021;-55
2021/10/19 07:13:07;;;;;;;17.85;12.75;;;10.60;99.90;;;;;;5050172;28;20567;-55
2021/10/19 07:15:36;;;;;;;18.98;14.43;;;10.60;99.90;;;;;;5068115;28;20028;-52
2021/10/19 07:18:03;;;;;;;19.55;14.65;;;10.70;99.90;;;;;;5068052;28;20032;-54
2021/10/19 07:20:29;;;;;;;16.95;13.50;;;10.70;99.90;;;;;;5030081;28;20025;-52
2021/10/19 07:22:59;;;;;;;23.13;14.10;;;10.70;99.90;;;;;;5030105;28;20078;-54
2021/10/19 07:25:28;;;;;;;21.02;14.68;;;10.80;99.90;;;;;;5047776;28;20061;-54
2021/10/19 07:27:57;;;;;;;21.90;14.73;;;10.80;99.90;;;;;;5048026;28;20120;-55
2021/10/19 07:30:22;;;;;;;19.05;13.75;;;10.80;99.90;;;;;;5047761;28;20024;-52
2021/10/19 07:32:48;;;;;;;19.45;14.48;;;10.90;99.90;;;;;;5065936;28;20475;-52
2021/10/19 07:35:16;;;;;;;19.63;15.05;;;11.00;99.90;;;;;;5088358;28;20710;-53
2021/10/19 07:37:42;;;;;;;18.23;14.25;;;11.00;99.90;;;;;;5088255;28;20020;-55
2021/10/19 07:40:09;;;;;;;19.98;15.40;;;11.00;99.90;;;;;;5087981;28;20032;-52
2021/10/19 07:42:35;;;;;;;20.23;14.13;;;11.10;99.90;;;;;;5088503;28;20480;-55
2021/10/19 07:45:02;;;;;;;20.52;14.90;;;11.10;99.90;;;;;;5085983;28;20104;-51
2021/10/19 07:47:28;;;;;;;21.13;15.07;;;11.20;99.90;;;;;;5067749;28;20036;-52
2021/10/19 07:49:54;;;;;;;21.80;14.70;;;11.20;99.90;;;;;;5067717;28;20024;-56
2021/10/19 07:52:19;;;;;;;22.30;15.00;;;11.30;99.90;;;;;;5049942;28;20028;-54
2021/10/19 07:54:45;;;;;;;21.40;14.30;;;11.40;99.90;;;;;;5049918;28;20031;-52
2021/10/19 07:57:10;;;;;;;23.25;15.43;;;11.40;99.90;;;;;;5077122;28;20028;-53
2021/10/19 07:59:36;;;;;;;21.27;14.25;;;11.50;99.90;;;;;;5070503;28;20407;-52
2021/10/19 08:02:02;;;;;;;19.50;13.52;;;11.60;99.90;;;;;;5067616;28;20029;-55
2021/10/19 08:04:27;;;;;;;19.00;13.88;;;11.70;99.90;;;;;;5067595;28;20104;-55
2021/10/19 08:06:53;;;;;;;22.13;15.05;;;11.70;99.90;;;;;;5067925;28;20029;-53
2021/10/19 08:09:19;;;;;;;22.45;14.45;;;11.80;99.90;;;;;;5067191;28;20059;-54
2021/10/19 08:11:44;;;;;;;20.33;14.60;;;11.90;99.90;;;;;;5049706;28;20511;-55
2021/10/19 08:14:10;;;;;;;21.08;15.32;;;12.00;99.90;;;;;;5049431;28;20032;-56
2021/10/19 08:16:36;;;;;;;21.33;14.05;;;12.00;99.90;;;;;;5064735;28;20037;-53
2021/10/19 08:19:02;;;;;;;17.48;13.57;;;12.10;99.90;;;;;;5062436;28;20078;-52
2021/10/19 08:21:29;;;;;;;18.33;14.27;;;12.10;99.90;;;;;;5067260;28;20036;-56
2021/10/19 08:23:55;;;;;;;17.55;14.23;;;12.20;99.90;;;;;;5067848;28;20459;-52
2021/10/19 08:26:21;;;;;;;17.75;13.82;;;12.30;99.90;;;;;;5067709;28;20060;-54
2021/10/19 08:28:47;;;;;;;20.02;13.77;;;12.30;99.90;;;;;;5067240;28;20029;-54
2021/10/19 08:31:15;;;;;;;18.75;13.10;;;12.40;99.90;;;;;;5063260;28;20028;-56
2021/10/19 08:33:43;;;;;;;19.80;14.48;;;12.40;99.90;;;;;;5069481;28;20057;-55
2021/10/19 08:36:10;;;;;;;18.70;13.30;;;12.50;99.90;;;;;;5067313;28;20024;-55
2021/10/19 08:38:35;;;;;;;18.50;13.63;;;12.60;99.90;;;;;;5068260;28;20025;-54
2021/10/19 08:41:01;;;;;;;17.40;13.30;;;12.60;99.90;;;;;;5069598;28;20383;-54
2021/10/19 08:43:27;;;;;;;17.38;12.63;;;12.70;99.90;;;;;;5070646;28;20059;-53
2021/10/19 08:45:53;;;;;;;18.65;13.43;;;12.70;99.90;;;;;;5071435;28;20082;-54
2021/10/19 08:48:18;;;;;;;18.55;13.00;;;12.70;99.90;;;;;;5069703;28;20039;-54
2021/10/19 08:50:44;;;;;;;16.25;12.50;;;12.70;99.90;;;;;;5070615;28;20029;-52
2021/10/19 08:53:12;;;;;;;21.20;13.32;;;12.70;99.90;;;;;;5070370;28;20496;-52
2021/10/19 08:55:37;;;;;;;17.08;12.50;;;12.80;99.90;;;;;;5070674;28;20387;-52
2021/10/19 08:58:04;;;;;;;16.52;12.55;;;12.80;99.90;;;;;;5052939;28;20031;-53
2021/10/19 09:00:30;;;;;;;21.58;12.63;;;12.80;99.90;;;;;;5069969;28;20027;-54
2021/10/19 09:02:56;;;;;;;18.33;13.90;;;12.90;99.90;;;;;;5070904;28;20021;-52
2021/10/19 09:05:25;;;;;;;16.27;13.27;;;12.90;99.90;;;;;;5069443;28;20024;-54
2021/10/19 09:08:04;;;;;;;17.73;12.55;;;12.90;99.90;;;;;;5061986;28;20032;-52
2021/10/19 09:10:41;;;;;;;15.23;11.18;;;13.00;99.90;;;;;;5051323;28;20024;-54
2021/10/19 09:13:08;;;;;;;16.75;11.75;;;13.10;99.90;;;;;;5051276;28;20041;-52
2021/10/19 09:15:36;;;;;;;16.10;12.02;;;13.20;99.90;;;;;;5070831;28;20028;-56
2021/10/19 09:18:06;;;;;;;15.40;10.95;;;13.20;99.90;;;;;;5069689;28;20032;-54
2021/10/19 09:20:37;;;;;;;15.77;11.20;;;13.20;99.90;;;;;;5070106;28;20017;-53
2021/10/19 09:23:04;;;;;;;14.52;12.25;;;13.30;99.90;;;;;;5057085;28;20024;-54
2021/10/19 09:25:37;;;;;;;16.08;12.38;;;13.40;99.90;;;;;;5060144;28;20025;-53
2021/10/19 09:28:04;;;;;;;15.40;12.38;;;13.40;99.90;;;;;;5060626;28;20033;-52
2021/10/19 09:30:40;;;;;;;15.05;11.52;;;13.40;99.90;;;;;;5060293;28;20017;-52
2021/10/19 09:33:07;;;;;;;;;;;13.50;99.90;;;;;;5061764;28;20496;-52
2021/10/19 09:35:34;;;;;;;14.95;11.27;;;13.50;99.90;;;;;;5060749;28;19909;-52
2021/10/19 09:38:04;;;;;;;15.95;11.18;;;13.60;99.90;;;;;;5061590;28;20036;-54
2021/10/19 09:40:52;;;;;;;16.17;11.43;;;13.60;99.90;;;;;;5060262;28;20508;-55
2021/10/19 09:43:20;;;;;;;17.02;11.02;;;13.70;99.90;;;;;;5060609;28;20082;-52
2021/10/19 09:45:52;;;;;;;14.57;11.73;;;13.70;99.90;;;;;;5061503;28;20330;-51
2021/10/19 09:48:22;;;;;;;13.60;10.70;;;13.80;99.90;;;;;;5059869;28;20036;-53
2021/10/19 09:50:49;;;;;;;12.88;10.30;;;13.80;99.90;;;;;;5060112;28;20032;-53
2021/10/19 09:53:16;;;;;;;14.57;10.20;;;13.90;99.90;;;;;;5049685;28;20025;-54
2021/10/19 09:55:42;;;;;;;14.85;10.20;;;13.90;99.90;;;;;;5058920;28;20481;-53
2021/10/19 09:58:09;;;;;;;13.82;11.35;;;13.90;99.90;;;;;;5039805;28;20043;-53
2021/10/19 10:00:37;;;;;;;15.07;10.05;;;14.00;99.90;;;;;;5059632;28;20504;-54
2021/10/19 10:03:04;;;;;;;13.57;9.98;;;14.00;99.90;;;;;;5042874;28;20113;-55
2021/10/19 10:05:35;;;;;;;15.65;10.48;;;14.00;99.90;;;;;;5060018;28;20021;-53
2021/10/19 10:08:02;;;;;;;14.23;10.13;;;14.10;99.90;;;;;;5061405;28;20031;-53
2021/10/19 10:10:28;;;;;;;13.90;9.52;;;14.10;99.90;;;;;;5059977;28;20514;-55
2021/10/19 10:13:01;;;;;;;11.40;9.45;;;14.20;99.90;;;;;;5060981;28;20177;-53
2021/10/19 10:15:35;;;;;;;15.60;10.45;;;14.20;99.90;;;;;;5061056;28;20080;-52
2021/10/19 10:18:04;;;;;;;14.75;10.70;;;14.30;99.90;;;;;;5062523;28;20032;-54
2021/10/19 10:20:57;;;;;;;12.30;9.32;;;14.40;99.90;;;;;;5060297;28;20061;-54
2021/10/19 10:23:26;;;;;;;12.20;9.52;;;14.40;99.90;;;;;;5056497;28;20509;-56
2021/10/19 10:25:56;;;;;;;11.88;9.40;;;14.50;99.90;;;;;;5061532;28;20032;-53
2021/10/19 10:28:32;;;;;;;12.80;10.70;;;14.60;99.90;;;;;;5058851;28;20043;-56
2021/10/19 10:31:00;;;;;;;12.60;10.23;;;14.60;99.90;;;;;;5058491;28;20519;-53
2021/10/19 10:34:01;;;;;;;23.02;19.80;;;14.70;99.90;;;;;;5058465;28;20044;-53
2021/10/19 10:36:42;;;;;;;10.52;8.93;;;14.70;99.90;;;;;;5039399;28;20051;-54
2021/10/19 10:39:08;;;;;;;10.25;9.20;;;14.80;99.90;;;;;;5039785;28;20037;-54
2021/10/19 10:41:43;;;;;;;11.38;8.77;;;14.80;99.90;;;;;;5058509;28;20048;-52
2021/10/19 10:44:09;;;;;;;12.57;9.13;;;14.90;99.90;;;;;;5058808;28;20068;-55
2021/10/19 10:46:35;;;;;;;11.70;9.75;;;14.90;99.90;;;;;;5059627;28;20032;-55
2021/10/19 10:49:01;;;;;;;13.63;9.40;;;15.00;99.90;;;;;;5040830;28;20032;-55
2021/10/19 10:51:28;;;;;;;10.73;9.63;;;15.00;99.90;;;;;;5059130;28;20700;-57
2021/10/19 10:53:54;;;;;;;12.15;9.40;;;15.10;99.90;;;;;;5059546;28;20016;-53
2021/10/19 10:56:20;;;;;;;11.80;10.60;;;15.10;99.90;;;;;;5059508;28;20032;-52
2021/10/19 10:58:47;;;;;;;9.20;8.27;;;15.10;99.90;;;;;;5041187;28;20025;-56
2021/10/19 11:01:27;;;;;;;11.88;9.32;;;15.10;99.90;;;;;;5059757;28;20182;-52
2021/10/19 11:04:06;;;;;;;12.73;9.05;;;15.20;99.90;;;;;;5060667;28;20032;-56
2021/10/19 11:06:36;;;;;;;12.98;9.23;;;15.20;99.90;;;;;;5060335;28;20061;-52
2021/10/19 11:09:12;;;;;;;11.20;8.85;;;15.20;99.90;;;;;;5060608;28;20622;-55
2021/10/19 11:11:40;;;;;;;10.85;8.35;;;15.10;99.90;;;;;;5041464;28;20032;-55
2021/10/19 11:14:13;;;;;;;9.77;8.57;;;15.10;99.90;;;;;;5059957;28;20040;-54
2021/10/19 11:16:42;;;;;;;12.85;9.15;;;15.10;99.90;;;;;;5059883;28;20111;-55
2021/10/19 11:19:22;;;;;;;10.02;8.77;;;15.10;99.90;;;;;;5040299;28;20648;-54
2021/10/19 11:21:52;;;;;;;10.50;9.07;;;15.10;99.90;;;;;;5057992;28;20033;-53
2021/10/19 11:24:20;;;;;;;10.73;8.73;;;15.10;99.90;;;;;;5057420;28;20128;-53
2021/10/19 11:26:46;;;;;;;12.90;9.32;;;15.10;99.90;;;;;;5040054;28;20388;-55
2021/10/19 11:29:12;;;;;;;11.32;8.98;;;15.10;99.90;;;;;;5056829;28;20029;-52
2021/10/19 11:31:38;;;;;;;11.60;8.65;;;15.00;99.90;;;;;;5058397;28;20731;-53
2021/10/19 11:34:07;;;;;;;11.30;9.38;;;15.00;99.90;;;;;;5058489;28;20036;-53
2021/10/19 11:36:33;;;;;;;12.82;9.07;;;15.00;99.90;;;;;;5058047;28;20066;-54
2021/10/19 11:39:03;;;;;;;11.50;7.97;;;15.00;99.90;;;;;;5058664;28;20025;-55
2021/10/19 11:41:31;;;;;;;11.45;9.50;;;15.00;99.90;;;;;;5057628;28;20083;-53
2021/10/19 11:44:02;;;;;;;13.40;9.95;;;15.00;99.90;;;;;;5059421;28;20024;-54
2021/10/19 11:46:30;;;;;;;11.13;8.48;;;14.90;99.90;;;;;;5058380;28;20503;-53
2021/10/19 11:49:01;;;;;;;12.65;9.48;;;14.90;99.90;;;;;;5059837;28;20531;-52
2021/10/19 11:51:28;;;;;;;11.80;8.85;;;15.00;99.90;;;;;;5058912;28;20050;-53
2021/10/19 11:53:56;;;;;;;10.00;8.45;;;15.00;99.90;;;;;;5058697;28;20056;-55
2021/10/19 11:56:21;;;;;;;12.18;9.23;;;15.00;99.90;;;;;;5058973;28;20047;-55
2021/10/19 11:58:55;;;;;;;11.55;8.40;;;15.10;99.90;;;;;;5060171;28;20020;-53
2021/10/19 12:01:23;;;;;;;9.63;7.97;;;15.00;99.90;;;;;;5042113;28;20033;-53
2021/10/19 12:04:04;;;;;;;9.32;8.07;;;15.00;99.90;;;;;;5060767;28;20025;-53
2021/10/19 12:06:31;;;;;;;11.32;9.07;;;15.00;99.90;;;;;;5059586;28;20048;-54
2021/10/19 12:09:10;;;;;;;14.65;8.15;;;15.00;99.90;;;;;;5041479;28;20025;-55
2021/10/19 12:11:35;;;;;;;12.48;8.80;;;15.00;99.90;;;;;;5058648;28;20021;-53
2021/10/19 12:14:02;;;;;;;10.32;8.38;;;15.00;99.90;;;;;;5056842;28;20446;-56
2021/10/19 12:16:30;;;;;;;9.35;8.07;;;14.90;99.90;;;;;;5059424;28;20395;-55
2021/10/19 12:18:57;;;;;;;8.55;7.35;;;14.90;99.90;;;;;;5061424;28;20103;-53
2021/10/19 12:21:25;;;;;;;11.07;7.88;;;14.90;99.90;;;;;;5061276;28;20021;-55
2021/10/19 12:24:03;;;;;;;9.57;8.15;;;14.90;99.90;;;;;;5061099;28;20096;-55
2021/10/19 12:26:32;;;;;;;9.02;7.72;;;15.00;99.90;;;;;;5061634;28;20349;-54
2021/10/19 12:29:04;;;;;;;10.63;8.50;;;15.00;99.90;;;;;;5061975;28;20032;-57
2021/10/19 12:31:30;;;;;;;9.05;8.13;;;15.00;99.90;;;;;;5061167;28;20024;-54
2021/10/19 12:34:02;;;;;;;11.48;8.73;;;15.00;99.90;;;;;;5062241;28;20061;-55
2021/10/19 12:36:35;;;;;;;9.15;8.20;;;14.90;99.90;;;;;;5061402;28;20037;-52
2021/10/19 12:39:06;;;;;;;8.93;8.02;;;15.00;99.90;;;;;;5061721;28;20040;-51